Airport View

Enter AWOS ICAO identifier for current METAR.

ex. KFNL

KRCA 100256Z AUTO 14009KT 10SM CLR 22/14 A3000 RMK AO2 SLP139 T02180142 53001 $

10 Jul 2020 04:02

Other Area AWOS: KRAP - KCUT - KSPF - KECS

TAF AMD KRCA 100120Z 1001/1101 VRB06KT 9999 SCT060 QNH2997INS TEMPO 0922/1001 33025G35KT 8000 TSRA BKN050CB BECMG 1008/1009 05010G20KT 9999 FEW040 QNH3006INS BECMG 1011/1012 17012KT 9999 FEW015 QNH2989INS TX31/1019Z TN14/1008Z LAST NO AMDS AFT 1001 NEXT 1011